Time;durP1;ratioP1;P1;durP2;ratioP2;P2;SDS_P1;SDS_P2;PMS_P1;PMS_P2;Temp;Humidity;BMP_temperature;BMP_pressure;BME280_temperature;BME280_humidity;BME280_pressure;Samples;Min_cycle;Max_cycle;Signal;HPM_P1;HPM_P2
2021/10/10 00:01:06;;;;;;;7.70;6.95;;;16.30;83.10;;;;;;4189045;28;20131;-60
2021/10/10 00:03:29;;;;;;;8.07;7.30;;;16.30;83.00;;;;;;4190693;28;20060;-60
2021/10/10 00:05:52;;;;;;;8.13;6.93;;;16.30;82.90;;;;;;4192197;28;20457;-60
2021/10/10 00:08:15;;;;;;;10.05;7.78;;;16.40;83.10;;;;;;4192247;28;20456;-60
2021/10/10 00:10:37;;;;;;;8.23;7.35;;;16.30;83.60;;;;;;4191638;28;20696;-60
2021/10/10 00:12:59;;;;;;;8.63;7.68;;;16.30;82.50;;;;;;4191735;28;20438;-60
2021/10/10 00:15:21;;;;;;;8.30;7.50;;;16.30;82.50;;;;;;4191583;28;20040;-60
2021/10/10 00:17:44;;;;;;;8.60;7.47;;;16.30;82.60;;;;;;4171384;28;20494;-60
2021/10/10 00:20:08;;;;;;;7.63;6.80;;;16.30;82.60;;;;;;4191690;28;20048;-59
2021/10/10 00:22:31;;;;;;;10.60;7.45;;;16.30;82.30;;;;;;4175800;28;20049;-60
2021/10/10 00:24:53;;;;;;;7.53;6.78;;;16.30;82.70;;;;;;4175056;28;20128;-60
2021/10/10 00:27:15;;;;;;;8.20;7.32;;;16.20;82.60;;;;;;4175491;28;20514;-61
2021/10/10 00:29:37;;;;;;;9.68;7.32;;;16.30;82.90;;;;;;4173963;28;20505;-61
2021/10/10 00:32:01;;;;;;;9.27;6.72;;;16.20;82.70;;;;;;4175322;28;20080;-61
2021/10/10 00:34:23;;;;;;;7.93;6.93;;;16.30;82.80;;;;;;4175284;28;20484;-61
2021/10/10 00:36:47;;;;;;;7.70;6.93;;;16.20;82.90;;;;;;4188800;28;20056;-61
2021/10/10 00:39:09;;;;;;;9.88;6.93;;;16.20;82.60;;;;;;4158642;28;20419;-61
2021/10/10 00:41:31;;;;;;;7.28;6.68;;;16.20;82.80;;;;;;4158168;28;20049;-60
2021/10/10 00:43:53;;;;;;;8.60;7.00;;;16.20;83.10;;;;;;4157377;28;20048;-60
2021/10/10 00:46:15;;;;;;;7.57;6.88;;;16.20;83.10;;;;;;4157400;28;20494;-60
2021/10/10 00:48:37;;;;;;;7.10;6.50;;;16.10;83.00;;;;;;4158620;28;20045;-61
2021/10/10 00:50:59;;;;;;;7.00;6.40;;;16.20;83.10;;;;;;4158822;28;20060;-61
2021/10/10 00:53:24;;;;;;;7.28;6.55;;;16.20;83.10;;;;;;4158403;28;20049;-60
2021/10/10 00:55:49;;;;;;;7.18;6.47;;;16.10;82.70;;;;;;4165448;28;20045;-61
2021/10/10 00:58:14;;;;;;;7.10;6.50;;;16.10;83.10;;;;;;4172868;28;20045;-61
2021/10/10 01:00:36;;;;;;;8.02;7.22;;;16.10;82.70;;;;;;4158535;28;20056;-61
2021/10/10 01:02:59;;;;;;;8.77;7.15;;;16.10;83.20;;;;;;4158575;28;20056;-61
2021/10/10 01:05:21;;;;;;;7.47;6.30;;;16.10;83.50;;;;;;4158506;28;20203;-61
2021/10/10 01:07:43;;;;;;;11.90;6.57;;;16.10;83.50;;;;;;4158509;28;20087;-60
2021/10/10 01:10:08;;;;;;;6.95;6.07;;;16.10;83.40;;;;;;4158087;28;20107;-61
2021/10/10 01:12:31;;;;;;;11.43;7.35;;;16.10;83.00;;;;;;4158343;28;20045;-61
2021/10/10 01:14:53;;;;;;;8.93;6.80;;;16.00;83.30;;;;;;4158123;28;20048;-61
2021/10/10 01:17:16;;;;;;;7.82;6.45;;;16.00;83.40;;;;;;4158089;28;20064;-60
2021/10/10 01:19:40;;;;;;;7.13;6.53;;;16.00;83.20;;;;;;4157941;28;20504;-61
2021/10/10 01:22:04;;;;;;;6.93;6.00;;;16.00;83.50;;;;;;4158313;28;20076;-61
2021/10/10 01:24:26;;;;;;;8.07;7.15;;;16.00;83.10;;;;;;4158046;28;20079;-60
2021/10/10 01:26:48;;;;;;;8.50;6.60;;;16.00;83.50;;;;;;4160264;28;20057;-60
2021/10/10 01:29:10;;;;;;;7.40;6.78;;;16.00;83.40;;;;;;4190995;28;20070;-58
2021/10/10 01:31:33;;;;;;;9.30;6.28;;;16.00;83.30;;;;;;4191251;28;20522;-60
2021/10/10 01:33:55;;;;;;;7.93;7.00;;;16.00;83.40;;;;;;4191187;28;20122;-60
2021/10/10 01:36:17;;;;;;;7.57;6.65;;;15.90;83.40;;;;;;4191179;28;20059;-60
2021/10/10 01:38:41;;;;;;;6.88;6.22;;;16.00;83.50;;;;;;4191146;28;20110;-61
2021/10/10 01:41:04;;;;;;;8.20;6.88;;;15.90;83.50;;;;;;4191435;28;20136;-60
2021/10/10 01:43:26;;;;;;;6.93;6.32;;;15.90;83.70;;;;;;4191095;28;20052;-60
2021/10/10 01:45:48;;;;;;;7.53;6.57;;;15.90;83.80;;;;;;4174910;28;20052;-60
2021/10/10 01:48:11;;;;;;;7.40;6.68;;;15.90;83.70;;;;;;4174541;28;20049;-60
2021/10/10 01:50:34;;;;;;;6.78;6.20;;;15.90;83.50;;;;;;4174466;28;20128;-60
2021/10/10 01:52:56;;;;;;;9.20;6.95;;;15.90;83.70;;;;;;4172951;28;20105;-60
2021/10/10 01:55:20;;;;;;;10.52;6.70;;;15.90;83.90;;;;;;4194244;28;20060;-59
2021/10/10 01:57:42;;;;;;;6.75;6.15;;;15.90;83.60;;;;;;4194022;28;20079;-61
2021/10/10 02:00:05;;;;;;;6.78;5.75;;;15.80;84.00;;;;;;4193908;28;20057;-61
2021/10/10 02:02:32;;;;;;;6.30;5.68;;;15.80;83.80;;;;;;4194269;28;20454;-60
2021/10/10 02:04:57;;;;;;;7.15;6.45;;;15.80;83.60;;;;;;4192594;28;20048;-61
2021/10/10 02:07:19;;;;;;;7.72;6.50;;;15.80;83.60;;;;;;4194000;28;20052;-61
2021/10/10 02:09:43;;;;;;;7.05;6.35;;;15.80;83.60;;;;;;4193841;28;20049;-60
2021/10/10 02:12:06;;;;;;;7.45;6.85;;;15.80;83.40;;;;;;4194002;28;20052;-61
2021/10/10 02:14:28;;;;;;;6.97;6.32;;;15.80;83.40;;;;;;4193828;28;20056;-60
2021/10/10 02:16:50;;;;;;;7.43;6.50;;;15.80;83.70;;;;;;4194118;28;20131;-61
2021/10/10 02:19:12;;;;;;;6.18;5.60;;;15.70;84.60;;;;;;4193805;28;20044;-60
2021/10/10 02:21:34;;;;;;;7.85;6.22;;;15.70;83.90;;;;;;4192719;28;20051;-61
2021/10/10 02:23:57;;;;;;;6.90;6.35;;;15.70;83.80;;;;;;4187387;28;20491;-61
2021/10/10 02:26:19;;;;;;;6.35;5.80;;;15.70;83.80;;;;;;4177235;28;20107;-60
2021/10/10 02:28:42;;;;;;;9.10;6.65;;;15.70;83.80;;;;;;4177301;28;20887;-60
2021/10/10 02:31:05;;;;;;;7.18;6.50;;;15.70;84.70;;;;;;4177174;28;20049;-60
2021/10/10 02:33:26;;;;;;;8.27;6.47;;;15.70;83.90;;;;;;4177069;28;20061;-60
2021/10/10 02:35:48;;;;;;;7.50;6.57;;;15.70;84.50;;;;;;4177147;28;20122;-60
2021/10/10 02:38:11;;;;;;;7.05;6.35;;;15.70;83.50;;;;;;4177279;28;20045;-60
2021/10/10 02:40:34;;;;;;;8.57;6.35;;;15.60;83.60;;;;;;4177085;28;20041;-60
2021/10/10 02:42:56;;;;;;;6.80;6.13;;;15.70;83.80;;;;;;4176967;28;20045;-60
2021/10/10 02:45:20;;;;;;;7.07;6.38;;;15.60;83.70;;;;;;4160614;28;20053;-61
2021/10/10 02:47:41;;;;;;;6.90;6.20;;;15.60;83.40;;;;;;4160341;28;20099;-60
2021/10/10 02:50:05;;;;;;;7.80;7.10;;;15.60;84.80;;;;;;4160402;28;20487;-61
2021/10/10 02:52:27;;;;;;;7.50;5.65;;;15.60;83.80;;;;;;4160370;28;20466;-60
2021/10/10 02:54:49;;;;;;;6.72;6.15;;;15.60;83.90;;;;;;4160126;28;20053;-60
2021/10/10 02:57:12;;;;;;;6.82;6.05;;;15.60;84.00;;;;;;4160328;28;20048;-61
2021/10/10 02:59:34;;;;;;;9.27;6.50;;;15.60;84.00;;;;;;4160527;28;20132;-60
2021/10/10 03:01:57;;;;;;;9.27;6.65;;;15.60;84.70;;;;;;4160035;28;20077;-60
2021/10/10 03:04:19;;;;;;;7.13;6.28;;;15.60;83.80;;;;;;4183623;28;20040;-60
2021/10/10 03:06:41;;;;;;;6.68;6.05;;;15.60;84.00;;;;;;4193323;28;20635;-61
2021/10/10 03:09:03;;;;;;;7.05;6.35;;;15.50;84.00;;;;;;4193278;28;20048;-60
2021/10/10 03:11:25;;;;;;;7.03;6.35;;;15.50;84.00;;;;;;4192149;28;20094;-60
2021/10/10 03:13:51;;;;;;;6.88;6.20;;;15.50;84.20;;;;;;4192727;28;20105;-60
2021/10/10 03:16:13;;;;;;;7.25;6.65;;;15.50;84.20;;;;;;4193212;28;20064;-60
2021/10/10 03:18:37;;;;;;;6.82;6.15;;;15.50;84.20;;;;;;4192983;28;20467;-60
2021/10/10 03:20:59;;;;;;;6.75;6.15;;;15.50;84.00;;;;;;4192947;28;20064;-60
2021/10/10 03:23:21;;;;;;;7.10;6.47;;;15.50;84.30;;;;;;4185477;28;20422;-61
2021/10/10 03:25:43;;;;;;;8.82;6.63;;;15.50;84.10;;;;;;4176208;28;20511;-60
2021/10/10 03:28:05;;;;;;;7.05;6.32;;;15.50;85.10;;;;;;4176072;28;20087;-60
2021/10/10 03:30:27;;;;;;;8.55;6.95;;;15.50;84.10;;;;;;4175815;28;20049;-60
2021/10/10 03:32:49;;;;;;;7.43;6.63;;;15.50;84.10;;;;;;4159928;28;20546;-60
2021/10/10 03:35:13;;;;;;;7.93;7.05;;;15.50;84.00;;;;;;4159110;28;20100;-60
2021/10/10 03:37:35;;;;;;;6.80;6.18;;;15.50;83.80;;;;;;4159784;28;20049;-60
2021/10/10 03:39:57;;;;;;;9.35;6.53;;;15.40;83.90;;;;;;4159753;28;20081;-61
2021/10/10 03:42:19;;;;;;;6.80;6.18;;;15.40;84.00;;;;;;4159763;28;20137;-60
2021/10/10 03:44:41;;;;;;;7.03;6.30;;;15.40;84.00;;;;;;4159465;28;20115;-60
2021/10/10 03:47:04;;;;;;;6.75;6.22;;;15.40;83.80;;;;;;4159572;28;20049;-60
2021/10/10 03:49:26;;;;;;;6.60;5.88;;;15.40;84.00;;;;;;4159215;28;20455;-60
2021/10/10 03:51:50;;;;;;;6.75;6.15;;;15.40;84.00;;;;;;4183647;28;20049;-60
2021/10/10 03:56:51;;;;;;;5.75;5.10;;;15.40;84.10;;;;;;4191774;28;20403;-60
2021/10/10 03:59:14;;;;;;;5.45;5.00;;;15.40;84.60;;;;;;4191836;28;20063;-60
2021/10/10 04:01:37;;;;;;;5.50;4.80;;;15.40;84.20;;;;;;4191931;28;20051;-59
2021/10/10 04:03:59;;;;;;;5.93;4.68;;;15.40;84.20;;;;;;4192089;28;20048;-59
2021/10/10 04:06:21;;;;;;;5.05;4.65;;;15.40;84.10;;;;;;4191978;28;20056;-60
2021/10/10 04:08:45;;;;;;;5.22;4.78;;;15.40;84.00;;;;;;4191980;28;20129;-60
2021/10/10 04:11:07;;;;;;;5.03;4.53;;;15.30;83.60;;;;;;4191602;28;20066;-60
2021/10/10 04:13:29;;;;;;;5.30;4.82;;;15.30;83.60;;;;;;4186453;28;20147;-60
2021/10/10 04:15:51;;;;;;;5.93;5.38;;;15.30;83.70;;;;;;4175053;28;20139;-60
2021/10/10 04:18:14;;;;;;;7.32;5.47;;;15.30;84.70;;;;;;4158994;28;20400;-60
2021/10/10 04:20:35;;;;;;;6.60;6.03;;;15.30;83.60;;;;;;4158948;28;20120;-60
2021/10/10 04:22:57;;;;;;;6.43;5.82;;;15.30;83.70;;;;;;4169674;28;20052;-60
2021/10/10 04:25:21;;;;;;;7.22;6.35;;;15.30;83.40;;;;;;4191622;28;20048;-59
2021/10/10 04:27:43;;;;;;;6.70;6.10;;;15.30;83.10;;;;;;4192069;28;20048;-60
2021/10/10 04:30:09;;;;;;;7.50;6.60;;;15.30;83.60;;;;;;4192036;28;20055;-60
2021/10/10 04:32:31;;;;;;;7.07;6.40;;;15.30;83.40;;;;;;4189907;28;20048;-61
2021/10/10 04:34:53;;;;;;;7.00;5.63;;;15.30;83.60;;;;;;4191250;28;20055;-61
2021/10/10 04:37:15;;;;;;;7.28;6.13;;;15.30;83.80;;;;;;4191924;28;20131;-60
2021/10/10 04:39:38;;;;;;;7.43;6.05;;;15.20;84.00;;;;;;4191468;28;20767;-60
2021/10/10 04:42:01;;;;;;;8.88;6.30;;;15.20;83.80;;;;;;4191423;28;20078;-60
2021/10/10 04:44:23;;;;;;;6.43;5.93;;;15.20;83.60;;;;;;4191615;28;20122;-60
2021/10/10 04:46:45;;;;;;;6.57;5.97;;;15.20;83.60;;;;;;4191614;28;20173;-60
2021/10/10 04:49:07;;;;;;;6.97;6.05;;;15.20;83.50;;;;;;4191687;28;20097;-60
2021/10/10 04:51:29;;;;;;;6.30;5.70;;;15.20;83.40;;;;;;4191463;28;20055;-60
2021/10/10 04:53:52;;;;;;;6.35;5.38;;;15.20;83.40;;;;;;4175687;28;20061;-60
2021/10/10 04:56:14;;;;;;;6.70;6.10;;;15.20;83.50;;;;;;4157041;28;20052;-60
2021/10/10 04:58:37;;;;;;;7.05;6.43;;;15.20;83.60;;;;;;4158593;28;20063;-60
2021/10/10 05:00:59;;;;;;;7.15;5.75;;;15.20;83.20;;;;;;4158249;28;20061;-60
2021/10/10 05:03:22;;;;;;;5.72;5.22;;;15.20;83.30;;;;;;4158405;28;20558;-60
2021/10/10 05:05:44;;;;;;;6.65;5.50;;;15.20;83.10;;;;;;4158550;28;20060;-60
2021/10/10 05:08:06;;;;;;;6.28;5.57;;;15.20;83.00;;;;;;4158400;28;20116;-60
2021/10/10 05:10:28;;;;;;;7.88;6.20;;;15.20;83.00;;;;;;4158070;28;20060;-61
2021/10/10 05:12:50;;;;;;;5.97;5.43;;;15.20;83.20;;;;;;4174344;28;20052;-60
2021/10/10 05:15:14;;;;;;;6.68;6.05;;;15.20;83.80;;;;;;4191485;28;20056;-60
2021/10/10 05:17:37;;;;;;;5.68;4.82;;;15.20;82.90;;;;;;4191170;28;20044;-60
2021/10/10 05:20:01;;;;;;;6.32;5.72;;;15.20;82.90;;;;;;4191546;28;20141;-61
2021/10/10 05:22:23;;;;;;;7.07;5.95;;;15.10;82.80;;;;;;4191517;28;20052;-60
2021/10/10 05:24:45;;;;;;;6.55;5.78;;;15.10;82.80;;;;;;4190967;28;20110;-60
2021/10/10 05:27:07;;;;;;;6.22;5.63;;;15.10;83.00;;;;;;4192504;28;20044;-60
2021/10/10 05:29:29;;;;;;;7.40;5.60;;;15.10;83.00;;;;;;4194439;28;20074;-61
2021/10/10 05:31:53;;;;;;;6.18;5.68;;;15.10;82.90;;;;;;4191271;28;20136;-59
2021/10/10 05:34:15;;;;;;;6.38;5.70;;;15.10;82.90;;;;;;4178037;28;20059;-60
2021/10/10 05:36:37;;;;;;;6.28;5.68;;;15.10;83.00;;;;;;4177978;28;20131;-60
2021/10/10 05:38:59;;;;;;;6.43;5.82;;;15.10;83.00;;;;;;4178107;28;20055;-60
2021/10/10 05:41:21;;;;;;;7.10;6.20;;;15.10;82.90;;;;;;4177946;28;20048;-60
2021/10/10 05:43:44;;;;;;;6.72;6.18;;;15.10;82.80;;;;;;4161520;28;20484;-60
2021/10/10 05:46:05;;;;;;;8.70;6.35;;;15.10;82.80;;;;;;4161450;28;20053;-60
2021/10/10 05:48:29;;;;;;;7.90;6.38;;;15.00;82.90;;;;;;4176517;28;20103;-60
2021/10/10 05:50:51;;;;;;;7.03;6.32;;;15.00;82.50;;;;;;4177436;28;20050;-60
2021/10/10 05:53:13;;;;;;;7.72;6.05;;;15.00;82.90;;;;;;4177864;28;20045;-60
2021/10/10 05:55:37;;;;;;;7.13;6.43;;;15.00;83.00;;;;;;4177695;28;20503;-59
2021/10/10 05:58:02;;;;;;;11.15;6.43;;;15.00;82.90;;;;;;4176300;28;24472;-60
2021/10/10 06:00:25;;;;;;;6.60;6.00;;;15.00;83.00;;;;;;4177619;28;20519;-60
2021/10/10 06:02:48;;;;;;;9.80;6.82;;;15.00;82.80;;;;;;4177703;28;20646;-60
2021/10/10 06:05:12;;;;;;;6.38;5.88;;;15.00;82.60;;;;;;4177659;28;20048;-60
2021/10/10 06:07:34;;;;;;;6.65;6.05;;;15.00;82.50;;;;;;4176820;28;20060;-60
2021/10/10 06:09:56;;;;;;;7.82;6.65;;;15.00;82.90;;;;;;4177579;28;20450;-60
2021/10/10 06:12:19;;;;;;;8.23;6.57;;;15.00;83.10;;;;;;4187936;28;20049;-58
2021/10/10 06:14:41;;;;;;;8.93;6.45;;;14.90;82.60;;;;;;4194130;28;20063;-59
2021/10/10 06:17:03;;;;;;;7.72;6.80;;;15.00;83.60;;;;;;4193916;28;20098;-58
2021/10/10 06:19:26;;;;;;;6.20;5.70;;;15.00;83.50;;;;;;4191175;28;20052;-59
2021/10/10 06:21:49;;;;;;;6.38;5.78;;;15.00;83.30;;;;;;4177041;28;20845;-60
2021/10/10 06:24:11;;;;;;;6.15;5.32;;;15.00;83.30;;;;;;4177433;28;20522;-59
2021/10/10 06:26:33;;;;;;;7.85;5.90;;;15.00;83.40;;;;;;4177184;28;20052;-60
2021/10/10 06:28:55;;;;;;;6.97;6.32;;;15.00;83.40;;;;;;4177772;28;20415;-59
2021/10/10 06:31:18;;;;;;;6.60;6.00;;;15.00;83.60;;;;;;4177001;28;20135;-59
2021/10/10 06:33:40;;;;;;;6.75;5.53;;;14.90;83.70;;;;;;4180545;28;20055;-60
2021/10/10 06:36:02;;;;;;;6.25;5.75;;;15.00;83.60;;;;;;4193985;28;20052;-59
2021/10/10 06:38:25;;;;;;;6.00;5.40;;;15.00;83.50;;;;;;4192894;28;20078;-60
2021/10/10 06:40:48;;;;;;;6.72;6.13;;;14.90;83.40;;;;;;4193166;28;20071;-59
2021/10/10 06:43:10;;;;;;;7.60;6.00;;;14.90;83.60;;;;;;4193142;28;20074;-59
2021/10/10 06:45:32;;;;;;;6.85;6.07;;;14.90;83.40;;;;;;4193560;28;20044;-59
2021/10/10 06:47:54;;;;;;;6.35;5.82;;;14.90;83.20;;;;;;4191884;28;20056;-60
2021/10/10 06:50:16;;;;;;;7.45;5.50;;;14.90;82.30;;;;;;4193680;28;20052;-60
2021/10/10 06:52:38;;;;;;;7.13;5.85;;;14.90;80.10;;;;;;4193178;28;20059;-59
2021/10/10 06:55:02;;;;;;;5.88;5.38;;;14.90;81.30;;;;;;4193338;28;20548;-59
2021/10/10 06:57:28;;;;;;;8.82;6.68;;;14.90;80.50;;;;;;4193006;28;20048;-60
2021/10/10 06:59:50;;;;;;;7.63;6.80;;;14.90;81.30;;;;;;4191585;28;20040;-59
2021/10/10 07:02:13;;;;;;;7.03;6.32;;;14.90;81.80;;;;;;4193293;28;20071;-59
2021/10/10 07:04:34;;;;;;;7.68;6.50;;;14.90;81.40;;;;;;4176949;28;20124;-59
2021/10/10 07:06:57;;;;;;;7.93;7.13;;;14.90;81.60;;;;;;4176407;28;20072;-59
2021/10/10 07:09:19;;;;;;;7.63;6.78;;;14.90;82.40;;;;;;4176208;28;20155;-59
2021/10/10 07:11:42;;;;;;;7.60;6.80;;;14.90;82.50;;;;;;4174657;28;20495;-58
2021/10/10 07:14:04;;;;;;;7.97;7.25;;;14.80;82.10;;;;;;4176336;28;20045;-59
2021/10/10 07:16:28;;;;;;;8.13;7.30;;;14.80;81.90;;;;;;4176296;28;20514;-59
2021/10/10 07:18:51;;;;;;;8.45;7.43;;;14.80;81.80;;;;;;4176386;28;20052;-59
2021/10/10 07:21:38;;;;;;;8.70;7.13;;;14.80;81.90;;;;;;4176165;28;20102;-59
2021/10/10 07:26:39;;;;;;;8.27;7.22;;;14.80;81.90;;;;;;4165489;28;20140;-59
2021/10/10 07:29:05;;;;;;;8.35;7.13;;;14.80;82.20;;;;;;4175985;28;20128;-58
2021/10/10 07:31:27;;;;;;;9.38;7.80;;;14.80;81.80;;;;;;4175322;28;20550;-59
2021/10/10 07:33:49;;;;;;;8.38;7.63;;;14.80;82.10;;;;;;4176170;28;20142;-59
2021/10/10 07:36:12;;;;;;;8.32;7.45;;;14.80;82.20;;;;;;4175546;28;20056;-59
2021/10/10 07:38:34;;;;;;;10.10;7.80;;;14.90;82.30;;;;;;4175756;28;20041;-59
2021/10/10 07:40:56;;;;;;;8.70;7.90;;;14.90;83.00;;;;;;4175931;28;20511;-59
2021/10/10 07:43:20;;;;;;;9.20;7.82;;;14.90;83.20;;;;;;4174393;28;20055;-59
2021/10/10 07:45:44;;;;;;;11.18;8.50;;;14.90;82.80;;;;;;4175968;28;20059;-59
2021/10/10 07:48:06;;;;;;;8.00;7.20;;;14.90;82.10;;;;;;4176040;28;20053;-59
2021/10/10 07:50:32;;;;;;;9.48;8.52;;;14.90;82.30;;;;;;4174504;28;20103;-59
2021/10/10 07:52:54;;;;;;;8.90;8.00;;;14.90;81.50;;;;;;4174520;28;20515;-59
2021/10/10 07:55:17;;;;;;;11.18;8.57;;;14.90;81.90;;;;;;4175594;28;20048;-59
2021/10/10 07:57:40;;;;;;;11.95;8.07;;;14.90;82.30;;;;;;4174316;28;20514;-60
2021/10/10 08:00:01;;;;;;;12.00;9.27;;;14.90;82.90;;;;;;4175680;28;20136;-60
2021/10/10 08:02:31;;;;;;;9.75;8.25;;;14.90;83.60;;;;;;4175594;28;20548;-59
2021/10/10 08:04:54;;;;;;;9.45;8.40;;;14.90;83.30;;;;;;4175846;28;21150;-59
2021/10/10 08:07:16;;;;;;;10.52;8.70;;;14.90;82.60;;;;;;4175070;28;20163;-59
2021/10/10 08:09:38;;;;;;;9.35;8.40;;;14.90;83.40;;;;;;4175543;28;20144;-59
2021/10/10 08:12:01;;;;;;;9.50;8.60;;;15.00;83.30;;;;;;4175108;28;20049;-59
2021/10/10 08:14:23;;;;;;;12.23;8.23;;;15.00;82.90;;;;;;4175749;28;20139;-59
2021/10/10 08:16:46;;;;;;;13.38;8.32;;;15.00;82.40;;;;;;4175554;28;20052;-59
2021/10/10 08:19:10;;;;;;;11.32;8.50;;;15.00;82.20;;;;;;4175494;28;20059;-59
2021/10/10 08:21:32;;;;;;;11.25;8.60;;;15.00;82.10;;;;;;4175609;28;20049;-59
2021/10/10 08:23:54;;;;;;;9.68;8.70;;;15.00;83.10;;;;;;4174989;28;20055;-59
2021/10/10 08:26:16;;;;;;;12.30;9.75;;;15.00;82.80;;;;;;4174913;28;20057;-59
2021/10/10 08:28:38;;;;;;;8.98;8.15;;;15.00;83.20;;;;;;4174942;28;20045;-59
2021/10/10 08:31:00;;;;;;;10.15;8.52;;;15.00;83.50;;;;;;4175304;28;20060;-59
2021/10/10 08:33:24;;;;;;;10.85;8.98;;;15.00;82.90;;;;;;4175110;28;20068;-58
2021/10/10 08:35:47;;;;;;;10.60;9.48;;;15.00;82.50;;;;;;4175149;28;20106;-58
2021/10/10 08:38:09;;;;;;;10.75;9.07;;;15.00;83.40;;;;;;4174997;28;20045;-59
2021/10/10 08:40:31;;;;;;;9.65;8.65;;;15.00;83.10;;;;;;4175065;28;20049;-59
2021/10/10 08:42:59;;;;;;;10.23;8.73;;;15.00;83.10;;;;;;4175187;28;20045;-59
2021/10/10 08:45:24;;;;;;;9.48;8.55;;;15.00;83.30;;;;;;4173663;28;20061;-59
2021/10/10 08:47:47;;;;;;;9.95;9.00;;;15.00;83.90;;;;;;4173553;28;20069;-59
2021/10/10 08:50:15;;;;;;;9.60;8.60;;;15.00;83.50;;;;;;4174899;28;20052;-60
2021/10/10 08:52:40;;;;;;;14.20;8.73;;;15.10;82.40;;;;;;4172218;28;20083;-58
2021/10/10 08:55:05;;;;;;;10.88;9.43;;;15.10;84.20;;;;;;4174775;28;20107;-58
2021/10/10 08:57:29;;;;;;;13.20;9.70;;;15.10;84.70;;;;;;4174878;28;20045;-60
2021/10/10 08:59:55;;;;;;;12.23;10.50;;;15.30;83.90;;;;;;4174653;28;20084;-59
2021/10/10 09:02:20;;;;;;;11.25;9.93;;;15.40;83.90;;;;;;4174463;28;20044;-58
2021/10/10 09:04:42;;;;;;;11.23;10.02;;;15.50;83.70;;;;;;4174909;28;20495;-59
2021/10/10 09:07:04;;;;;;;10.90;9.80;;;15.70;83.30;;;;;;4174466;28;20057;-60
2021/10/10 09:09:29;;;;;;;13.15;9.32;;;15.80;82.30;;;;;;4174234;28;20084;-59
2021/10/10 09:11:51;;;;;;;10.63;9.52;;;15.90;82.00;;;;;;4174487;28;20045;-59
2021/10/10 09:14:14;;;;;;;12.68;9.70;;;16.10;81.50;;;;;;4166944;28;20131;-59
2021/10/10 09:16:36;;;;;;;14.55;10.55;;;16.20;81.10;;;;;;4174589;28;20799;-59
2021/10/10 09:18:58;;;;;;;10.77;9.68;;;16.30;81.70;;;;;;4174685;28;20056;-57
2021/10/10 09:21:22;;;;;;;11.02;9.95;;;16.40;80.30;;;;;;4174638;28;20059;-59
2021/10/10 09:23:50;;;;;;;16.85;10.13;;;16.50;80.20;;;;;;4174559;28;20140;-59
2021/10/10 09:26:13;;;;;;;10.60;9.60;;;16.60;80.40;;;;;;4174195;28;20056;-60
2021/10/10 09:28:36;;;;;;;12.63;9.50;;;16.60;80.20;;;;;;4174245;28;20045;-59
2021/10/10 09:31:00;;;;;;;10.73;9.73;;;16.70;79.50;;;;;;4174750;28;20473;-59
2021/10/10 09:33:38;;;;;;;11.25;10.13;;;16.80;79.00;;;;;;4174590;28;20411;-59
2021/10/10 09:36:05;;;;;;;11.10;10.02;;;16.80;78.10;;;;;;4174422;28;20130;-60
2021/10/10 09:38:28;;;;;;;11.27;10.10;;;16.90;78.30;;;;;;4157906;28;20050;-60
2021/10/10 09:40:56;;;;;;;9.63;8.48;;;16.90;78.30;;;;;;4172212;28;20538;-60
2021/10/10 09:43:20;;;;;;;11.93;10.70;;;16.90;78.70;;;;;;4172463;28;20507;-61
2021/10/10 09:45:53;;;;;;;13.98;12.10;;;16.90;78.70;;;;;;4174494;28;20060;-60
2021/10/10 09:48:16;;;;;;;13.18;10.40;;;16.90;79.00;;;;;;4172883;28;20477;-60
2021/10/10 09:50:38;;;;;;;12.18;11.00;;;16.90;78.70;;;;;;4174589;28;20056;-60
2021/10/10 09:53:02;;;;;;;12.27;10.88;;;16.90;78.60;;;;;;4177794;28;20059;-61
2021/10/10 09:55:24;;;;;;;13.93;10.95;;;16.90;78.80;;;;;;4174515;28;20136;-60
2021/10/10 09:57:47;;;;;;;12.10;10.77;;;16.90;78.90;;;;;;4174184;28;20439;-60
2021/10/10 10:00:20;;;;;;;14.70;10.73;;;16.90;79.00;;;;;;4174274;28;20459;-60
2021/10/10 10:02:43;;;;;;;14.15;11.88;;;16.80;78.70;;;;;;4174137;28;20037;-61
2021/10/10 10:05:06;;;;;;;13.40;11.02;;;16.80;79.20;;;;;;4173522;28;20045;-59
2021/10/10 10:07:28;;;;;;;12.55;10.57;;;16.80;79.40;;;;;;4169259;28;20053;-60
2021/10/10 10:09:53;;;;;;;13.35;11.95;;;16.80;79.90;;;;;;4174199;28;20045;-60
2021/10/10 10:12:15;;;;;;;15.38;11.38;;;16.80;79.40;;;;;;4167560;28;20056;-60
2021/10/10 10:14:38;;;;;;;15.65;11.52;;;16.80;79.40;;;;;;4175996;28;20118;-60
2021/10/10 10:17:04;;;;;;;13.18;11.70;;;16.90;79.60;;;;;;4177191;28;20077;-61
2021/10/10 10:19:27;;;;;;;12.35;10.93;;;16.90;79.20;;;;;;4177249;28;20041;-60
2021/10/10 10:21:54;;;;;;;12.35;10.55;;;16.90;78.90;;;;;;4176827;28;20057;-60
2021/10/10 10:24:19;;;;;;;14.77;12.02;;;17.00;79.00;;;;;;4176735;28;20049;-60
2021/10/10 10:26:42;;;;;;;13.52;11.50;;;17.00;78.80;;;;;;4176969;28;20049;-60
2021/10/10 10:29:12;;;;;;;13.02;11.20;;;17.00;79.00;;;;;;4177026;28;20071;-60
2021/10/10 10:31:37;;;;;;;14.55;11.95;;;17.00;79.00;;;;;;4177295;28;20072;-60
2021/10/10 10:34:22;;;;;;;14.40;12.07;;;17.00;78.80;;;;;;4177249;28;20099;-60
2021/10/10 10:36:52;;;;;;;12.15;10.82;;;17.00;78.40;;;;;;4176941;28;20056;-60
2021/10/10 10:39:33;;;;;;;13.65;10.95;;;17.00;78.70;;;;;;4177041;28;20052;-59
2021/10/10 10:42:13;;;;;;;14.32;11.57;;;17.00;78.50;;;;;;4175832;28;20499;-59
2021/10/10 10:44:38;;;;;;;15.55;12.10;;;17.00;78.80;;;;;;4174853;28;20430;-59
2021/10/10 10:47:04;;;;;;;14.88;11.60;;;17.00;78.80;;;;;;4176494;28;20045;-59
2021/10/10 10:49:46;;;;;;;14.88;11.63;;;17.00;78.80;;;;;;4176947;28;20057;-58
2021/10/10 10:52:22;;;;;;;12.77;11.02;;;17.00;78.50;;;;;;4176738;28;20075;-58
2021/10/10 10:54:45;;;;;;;14.10;11.55;;;17.00;78.80;;;;;;4176504;28;20491;-58
2021/10/10 10:57:28;;;;;;;11.75;10.65;;;17.00;79.10;;;;;;4175720;28;20567;-58
2021/10/10 11:00:01;;;;;;;13.20;11.80;;;17.00;78.80;;;;;;4180402;28;20061;-59
2021/10/10 11:02:43;;;;;;;13.13;11.80;;;17.00;79.00;;;;;;4174818;28;20068;-58
2021/10/10 11:05:07;;;;;;;13.68;11.40;;;17.00;79.40;;;;;;4176371;28;20102;-59
2021/10/10 11:07:33;;;;;;;14.93;11.82;;;17.00;79.50;;;;;;4176461;28;20055;-58
2021/10/10 11:09:55;;;;;;;13.95;11.88;;;17.00;79.10;;;;;;4176539;28;20098;-59
2021/10/10 11:12:29;;;;;;;13.20;10.65;;;17.00;79.40;;;;;;4176525;28;20132;-59
2021/10/10 11:15:02;;;;;;;13.65;11.15;;;17.00;79.20;;;;;;4175156;28;20045;-58
2021/10/10 11:17:24;;;;;;;14.07;11.63;;;17.00;79.30;;;;;;4176152;28;20048;-60
2021/10/10 11:19:50;;;;;;;12.20;10.45;;;17.00;79.40;;;;;;4180239;28;20127;-60
2021/10/10 11:22:17;;;;;;;12.95;11.05;;;17.00;79.00;;;;;;4192483;28;20198;-59
2021/10/10 11:24:40;;;;;;;13.15;11.85;;;16.90;79.40;;;;;;4192549;28;20067;-59
2021/10/10 11:27:11;;;;;;;12.73;11.20;;;16.90;79.50;;;;;;4192733;28;20054;-59
2021/10/10 11:29:34;;;;;;;13.77;12.38;;;16.90;80.00;;;;;;4192603;28;20053;-58
2021/10/10 11:32:00;;;;;;;15.15;13.38;;;16.90;80.50;;;;;;4192567;28;20044;-59
2021/10/10 11:34:25;;;;;;;14.57;13.00;;;16.90;80.70;;;;;;4192903;28;20059;-59
2021/10/10 11:36:49;;;;;;;14.30;12.65;;;16.90;79.80;;;;;;4192321;28;20048;-59
2021/10/10 11:39:14;;;;;;;19.00;13.70;;;16.80;79.90;;;;;;4191059;28;20667;-59
2021/10/10 11:41:41;;;;;;;20.15;14.15;;;16.90;80.10;;;;;;4192402;28;20058;-59
2021/10/10 11:44:05;;;;;;;15.82;13.80;;;16.80;80.40;;;;;;4179449;28;20045;-59
2021/10/10 11:46:37;;;;;;;18.20;13.98;;;16.90;80.50;;;;;;4176059;28;20049;-58
2021/10/10 11:48:59;;;;;;;16.60;14.80;;;16.80;80.80;;;;;;4159235;28;20144;-58
2021/10/10 11:51:35;;;;;;;16.65;14.90;;;16.90;80.20;;;;;;4159678;28;20496;-56
2021/10/10 11:53:57;;;;;;;17.83;14.88;;;16.90;80.20;;;;;;4188144;28;20044;-60
2021/10/10 11:56:20;;;;;;;17.63;14.52;;;16.90;80.90;;;;;;4191918;28;20048;-59
2021/10/10 11:58:43;;;;;;;18.23;15.70;;;16.90;80.40;;;;;;4192111;28;20503;-59
2021/10/10 12:01:09;;;;;;;18.70;16.33;;;16.90;80.60;;;;;;4192219;28;20059;-59
2021/10/10 12:03:32;;;;;;;17.33;15.48;;;16.90;80.10;;;;;;4182081;28;20049;-60
2021/10/10 12:05:55;;;;;;;20.08;14.75;;;17.00;80.70;;;;;;4175759;28;20128;-60
2021/10/10 12:08:18;;;;;;;18.58;16.23;;;17.00;80.90;;;;;;4175539;28;20128;-59
2021/10/10 12:10:42;;;;;;;17.70;15.88;;;17.00;80.90;;;;;;4174833;28;20065;-60
2021/10/10 12:13:06;;;;;;;18.17;16.08;;;17.00;80.70;;;;;;4175660;28;20773;-59
2021/10/10 12:15:28;;;;;;;20.83;16.35;;;17.00;80.50;;;;;;4175633;28;20483;-59
2021/10/10 12:17:53;;;;;;;19.52;14.98;;;17.00;81.40;;;;;;4175419;28;20084;-59
2021/10/10 12:20:25;;;;;;;18.80;15.98;;;17.10;81.00;;;;;;4174340;28;20135;-59
2021/10/10 12:22:48;;;;;;;19.83;16.98;;;17.10;80.60;;;;;;4179763;28;20080;-59
2021/10/10 12:25:21;;;;;;;19.63;15.82;;;17.10;81.10;;;;;;4191257;28;20045;-57
2021/10/10 12:27:43;;;;;;;18.95;16.70;;;17.10;80.50;;;;;;4158685;28;20670;-59